Airfield :
LOGIN :

Register | Disclaimer

   EN    FR    IT 

 










Legend :    VFR   Marginal VFR   IFR   Intensive IFR   Very Intensive IFR
Visi :
Ceiling :
>= 8 km
>= 3000ft
5 to 8 km
1000 to 3000 ft
1500m to 5 km
500 to 1000 ft
800 to 1500m
200 to 500 ft
< 800m
< 200 ft
Symbols :   Thunderstorms  Fog  Heavy snow  Heavy precipitations  Wind > 20 kt
SIGMETs :     Misc.  Thunderstorms  Icing  Turbulence  Mountain Waves  Volcanic Ashes






- Airport Elevation : 681 ft
- IATA code : LBA


EGNM - Leeds Bradford

CURRENT METAR :
  • 181250Z 16009KT 130V200 9999 FEW036 18/08 Q1018

EXPIRED METARs :
  • 181220Z 18007KT 120V220 9999 FEW030 17/07 Q1018
  • 181150Z 17009KT 140V220 9999 FEW020 16/07 Q1018
  • 181120Z 21007KT 150V250 9999 FEW020 16/06 Q1018
  • 181050Z 20010KT 170V230 9999 FEW020 17/07 Q1018
  • 181020Z 23011KT 190V260 9999 FEW020 16/07 Q1019

TAF TAF EGNM
Valid from the 18 at 12:00 until the 19 at 12:00 UTC


181100Z 1812/1912 18010KT 9999 FEW030
TEMPO 1820/1902 6000 RA SHRA
PROB30
TEMPO 1820/1901 3000 +RA +SHRA BKN010
BECMG 1909/1912 27010KT
ATIS : +44 113 250 9696 (x2489)



MET'MAP, your aeronautical weather chart ! - Copyright ORBIFLY December 2007 - Disclaimer

ORBIFLY MET'MAP TEAM :

Programming & Development : Alexandra Zaïnal
Original concept : Baudouin d'Aumeries
Technical & hardware support : Manuel Goepfert
Assistance : Marc-Olivier Méhu

Contact : metmap@orbifly.com




SOURCES & CREDITS :

   NOAA